TimeEDT,TemperatureF,Dew PointF,Humidity,Sea Level PressureIn,VisibilityMPH,Wind Direction,Wind SpeedMPH,Gust SpeedMPH,PrecipitationIn,Events,Conditions,WindDirDegrees,DateUTC
12:27 AM,42.8,41.0,93,29.73,10.0,Calm,Calm,-,N/A,,Partly Cloudy,0,2012-10-07 04:27:00
12:54 AM,44.1,41.0,89,29.75,10.0,Calm,Calm,-,N/A,,Clear,0,2012-10-07 04:54:00
1:54 AM,43.0,39.9,89,29.77,10.0,WSW,5.8,-,N/A,,Clear,250,2012-10-07 05:54:00
3:54 AM,42.1,39.0,89,29.81,10.0,WSW,9.2,-,N/A,,Clear,240,2012-10-07 07:54:00
4:54 AM,39.9,37.9,93,29.84,10.0,WSW,5.8,-,N/A,,Clear,250,2012-10-07 08:54:00
5:54 AM,39.0,37.9,96,29.86,10.0,WSW,6.9,-,N/A,,Clear,240,2012-10-07 09:54:00
6:54 AM,39.9,39.0,97,29.89,10.0,SSW,3.5,-,N/A,,Clear,200,2012-10-07 10:54:00
7:54 AM,43.0,39.9,89,29.92,10.0,SW,5.8,-,N/A,,Partly Cloudy,230,2012-10-07 11:54:00
8:54 AM,46.9,42.1,83,29.94,10.0,WSW,9.2,18.4,N/A,,Clear,250,2012-10-07 12:54:00
9:54 AM,48.9,41.0,74,29.96,10.0,West,10.4,-,N/A,,Clear,260,2012-10-07 13:54:00
10:36 AM,51.8,42.8,71,29.94,10.0,West,6.9,-,N/A,,Mostly Cloudy,280,2012-10-07 14:36:00
10:54 AM,50.0,39.9,68,29.96,10.0,West,11.5,18.4,N/A,,Scattered Clouds,270,2012-10-07 14:54:00
11:09 AM,50.0,39.2,66,29.94,10.0,West,8.1,-,N/A,,Mostly Cloudy,280,2012-10-07 15:09:00
11:32 AM,50.0,39.2,66,29.94,10.0,WSW,10.4,-,N/A,,Mostly Cloudy,250,2012-10-07 15:32:00
11:54 AM,50.0,39.0,66,29.97,10.0,WSW,10.4,-,N/A,,Mostly Cloudy,240,2012-10-07 15:54:00
12:26 PM,51.8,39.2,62,29.95,10.0,WSW,6.9,-,N/A,,Mostly Cloudy,250,2012-10-07 16:26:00
12:54 PM,52.0,37.9,59,29.97,10.0,SW,5.8,-,N/A,,Scattered Clouds,230,2012-10-07 16:54:00
1:54 PM,51.1,39.9,66,29.98,10.0,NNW,4.6,-,N/A,,Mostly Cloudy,330,2012-10-07 17:54:00
2:54 PM,52.0,39.0,61,29.98,10.0,SSE,6.9,-,N/A,,Mostly Cloudy,150,2012-10-07 18:54:00
3:54 PM,51.1,36.0,56,29.99,10.0,SW,11.5,-,N/A,,Overcast,230,2012-10-07 19:54:00
4:54 PM,50.0,36.0,59,30.01,10.0,WSW,6.9,-,N/A,,Mostly Cloudy,240,2012-10-07 20:54:00
5:54 PM,48.0,37.0,66,30.02,10.0,WSW,4.6,-,N/A,,Overcast,240,2012-10-07 21:54:00
6:54 PM,46.9,37.0,68,30.03,10.0,West,4.6,-,0.00,,Overcast,260,2012-10-07 22:54:00
7:54 PM,46.0,37.0,71,30.05,10.0,WSW,3.5,-,N/A,,Overcast,240,2012-10-07 23:54:00
8:54 PM,45.0,37.0,74,30.04,10.0,West,3.5,-,N/A,,Overcast,260,2012-10-08 00:54:00
9:54 PM,43.0,37.0,80,30.02,10.0,Calm,Calm,-,N/A,,Partly Cloudy,0,2012-10-08 01:54:00
10:54 PM,44.1,37.0,76,30.03,10.0,WNW,3.5,-,N/A,,Overcast,300,2012-10-08 02:54:00
11:54 PM,43.0,37.9,82,30.03,10.0,Calm,Calm,-,N/A,,Overcast,0,2012-10-08 03:54:00